createdAt,value
2022-09-25T00:01:11.502Z,1.75
2022-09-25T00:03:09.803Z,1.75
2022-09-25T00:05:09.369Z,1.75
2022-09-25T00:07:09.121Z,1.75
2022-09-25T00:09:10.303Z,1.75
2022-09-25T00:11:09.276Z,1.75
2022-09-25T00:13:09.614Z,1.75
2022-09-25T00:15:09.078Z,1.75
2022-09-25T00:17:09.659Z,1.75
2022-09-25T00:19:09.305Z,1.75
2022-09-25T00:21:09.657Z,1.75
2022-09-25T00:23:09.331Z,1.75
2022-09-25T00:25:09.927Z,1.75
2022-09-25T00:27:09.001Z,1.75
2022-09-25T00:29:14.643Z,1.75
2022-09-25T00:31:09.986Z,1.75
2022-09-25T00:33:08.975Z,1.75
2022-09-25T00:35:08.813Z,1.75
2022-09-25T00:37:09.369Z,1.75
2022-09-25T00:39:09.384Z,1.75
2022-09-25T00:41:09.489Z,1.75
2022-09-25T00:43:08.912Z,1.75
2022-09-25T00:45:09.398Z,1.75
2022-09-25T00:47:09.704Z,1.75
2022-09-25T00:49:09.140Z,1.75
2022-09-25T00:51:08.951Z,1.75
2022-09-25T00:53:08.932Z,1.75
2022-09-25T00:55:09.527Z,1.75
2022-09-25T00:57:09.304Z,1.75
2022-09-25T00:59:08.667Z,1.75
2022-09-25T01:01:14.276Z,1.75
2022-09-25T01:03:10.455Z,1.75
2022-09-25T01:05:09.842Z,1.75
2022-09-25T01:07:09.147Z,1.75
2022-09-25T01:09:09.173Z,1.75
2022-09-25T01:11:09.242Z,1.75
2022-09-25T01:13:09.068Z,1.75
2022-09-25T01:15:08.820Z,1.75
2022-09-25T01:17:09.704Z,1.75
2022-09-25T01:19:08.768Z,1.75
2022-09-25T01:21:09.249Z,1.75
2022-09-25T01:23:09.300Z,1.75
2022-09-25T01:25:09.727Z,1.75
2022-09-25T01:27:12.175Z,1.75
2022-09-25T01:29:08.863Z,1.75
2022-09-25T01:31:10.121Z,1.75
2022-09-25T01:33:09.230Z,1.75
2022-09-25T01:35:08.833Z,1.75
2022-09-25T01:37:08.988Z,1.75
2022-09-25T01:39:09.251Z,1.75
2022-09-25T01:41:09.377Z,1.75
2022-09-25T01:43:09.519Z,1.75
2022-09-25T01:45:09.879Z,1.75
2022-09-25T01:47:09.226Z,1.75
2022-09-25T01:49:09.091Z,1.75
2022-09-25T01:51:09.126Z,1.75
2022-09-25T01:53:09.253Z,1.75
2022-09-25T01:55:09.708Z,1.75
2022-09-25T01:57:09.018Z,1.75
2022-09-25T01:59:09.244Z,1.75
2022-09-25T02:01:11.796Z,1.75
2022-09-25T02:03:10.290Z,1.75
2022-09-25T02:05:08.898Z,1.75
2022-09-25T02:07:08.828Z,1.75
2022-09-25T02:09:08.848Z,1.75
2022-09-25T02:11:09.451Z,1.75
2022-09-25T02:13:09.569Z,1.75
2022-09-25T02:15:09.755Z,1.75
2022-09-25T02:17:09.459Z,1.75
2022-09-25T02:19:08.966Z,1.75
2022-09-25T02:21:09.071Z,1.75
2022-09-25T02:23:09.693Z,1.75
2022-09-25T02:25:10.700Z,1.75
2022-09-25T02:27:09.062Z,1.75
2022-09-25T02:29:09.615Z,1.75
2022-09-25T02:31:09.660Z,1.75
2022-09-25T02:33:08.894Z,1.75
2022-09-25T02:35:11.770Z,1.75
2022-09-25T02:37:08.968Z,1.75
2022-09-25T02:39:09.434Z,1.75
2022-09-25T02:41:10.509Z,1.75
2022-09-25T02:43:09.232Z,1.75
2022-09-25T02:45:09.745Z,1.75
2022-09-25T02:47:09.396Z,1.75
2022-09-25T02:49:08.934Z,1.75
2022-09-25T02:51:09.169Z,1.75
2022-09-25T02:53:08.743Z,1.75
2022-09-25T02:55:09.167Z,1.75
2022-09-25T02:57:15.291Z,1.75
2022-09-25T02:59:09.372Z,1.75
2022-09-25T03:01:12.979Z,1.75
2022-09-25T03:03:15.162Z,1.75
2022-09-25T03:05:09.428Z,1.75
2022-09-25T03:07:09.196Z,1.75
2022-09-25T03:09:09.135Z,1.75
2022-09-25T03:11:09.133Z,1.75
2022-09-25T03:13:09.631Z,1.75
2022-09-25T03:15:09.753Z,1.75
2022-09-25T03:17:09.972Z,1.75
2022-09-25T03:19:08.913Z,1.75
2022-09-25T03:21:09.564Z,1.75
2022-09-25T03:23:09.286Z,1.75
2022-09-25T03:25:09.760Z,1.75
2022-09-25T03:27:09.993Z,1.75
2022-09-25T03:29:08.969Z,1.75
2022-09-25T03:31:09.970Z,1.75
2022-09-25T03:33:09.509Z,1.75
2022-09-25T03:35:09.868Z,1.75
2022-09-25T03:37:09.638Z,1.75
2022-09-25T03:39:09.204Z,1.75
2022-09-25T03:41:09.826Z,1.75
2022-09-25T03:45:09.339Z,1.75
2022-09-25T03:47:09.499Z,1.75
2022-09-25T03:49:09.261Z,1.75
2022-09-25T03:51:09.631Z,1.75
2022-09-25T03:53:09.290Z,1.75
2022-09-25T03:55:09.103Z,1.75
2022-09-25T03:57:09.458Z,1.75
2022-09-25T03:59:09.736Z,1.75
2022-09-25T04:01:12.331Z,1.75
2022-09-25T04:03:09.558Z,1.75
2022-09-25T04:05:09.453Z,1.75
2022-09-25T04:07:09.666Z,1.75
2022-09-25T04:09:09.227Z,1.75
2022-09-25T04:11:08.789Z,1.75
2022-09-25T04:13:09.332Z,1.75
2022-09-25T04:15:09.238Z,1.75
2022-09-25T04:17:09.685Z,1.75
2022-09-25T04:19:13.969Z,1.75
2022-09-25T04:21:09.749Z,1.75
2022-09-25T04:23:08.996Z,1.75
2022-09-25T04:25:08.993Z,1.75
2022-09-25T04:27:09.078Z,1.75
2022-09-25T04:29:09.729Z,1.75
2022-09-25T04:31:09.354Z,1.75
2022-09-25T04:33:09.215Z,1.75
2022-09-25T04:35:09.535Z,1.75
2022-09-25T04:37:09.572Z,1.75
2022-09-25T04:39:08.849Z,1.75
2022-09-25T04:41:09.983Z,1.75
2022-09-25T04:43:09.124Z,1.75
2022-09-25T04:45:09.428Z,1.75
2022-09-25T04:47:18.200Z,1.75
2022-09-25T04:49:08.923Z,1.75
2022-09-25T04:51:09.607Z,1.75
2022-09-25T04:53:09.046Z,1.75
2022-09-25T04:55:09.505Z,1.75
2022-09-25T04:57:12.918Z,1.75
2022-09-25T04:59:09.303Z,1.75
2022-09-25T05:01:11.692Z,1.75
2022-09-25T05:03:10.711Z,1.75
2022-09-25T05:05:16.211Z,1.75
2022-09-25T05:07:09.644Z,1.75
2022-09-25T05:09:09.273Z,1.75
2022-09-25T05:11:09.289Z,1.75
2022-09-25T05:13:09.494Z,1.75
2022-09-25T05:15:09.594Z,1.75
2022-09-25T05:17:09.984Z,1.75
2022-09-25T05:19:10.029Z,1.75
2022-09-25T05:21:08.859Z,1.75
2022-09-25T05:23:09.530Z,1.75
2022-09-25T05:25:10.602Z,1.75
2022-09-25T05:27:09.026Z,1.75
2022-09-25T05:29:08.872Z,1.75
2022-09-25T05:31:09.193Z,1.75
2022-09-25T05:33:09.139Z,1.75
2022-09-25T05:35:09.828Z,1.75
2022-09-25T05:37:09.518Z,1.75
2022-09-25T05:39:13.623Z,1.75
2022-09-25T05:41:09.897Z,1.75
2022-09-25T05:43:09.799Z,1.75
2022-09-25T05:45:12.384Z,1.75
2022-09-25T05:47:09.312Z,1.75
2022-09-25T05:49:09.161Z,1.75
2022-09-25T05:51:09.364Z,1.75
2022-09-25T05:53:08.981Z,1.75
2022-09-25T05:55:09.551Z,1.75
2022-09-25T05:57:08.925Z,1.75
2022-09-25T05:59:09.345Z,1.75
2022-09-25T06:01:11.937Z,1.75
2022-09-25T06:03:09.659Z,1.75
2022-09-25T06:05:09.729Z,1.75
2022-09-25T06:07:12.651Z,1.75
2022-09-25T06:09:09.002Z,1.75
2022-09-25T06:11:09.628Z,1.75
2022-09-25T06:13:09.152Z,1.75
2022-09-25T06:15:09.368Z,1.75
2022-09-25T06:17:09.746Z,1.75
2022-09-25T06:19:09.281Z,1.75
2022-09-25T06:21:12.912Z,1.75
2022-09-25T06:23:09.383Z,1.75
2022-09-25T06:25:09.327Z,1.75
2022-09-25T06:27:09.537Z,1.75
2022-09-25T06:29:14.549Z,1.75
2022-09-25T06:31:09.277Z,1.75
2022-09-25T06:33:09.495Z,1.75
2022-09-25T06:35:09.576Z,1.75
2022-09-25T06:37:09.441Z,1.75
2022-09-25T06:39:08.862Z,1.75
2022-09-25T06:41:11.892Z,1.75
2022-09-25T06:43:09.316Z,1.75
2022-09-25T06:45:09.770Z,1.75
2022-09-25T06:47:09.792Z,1.75
2022-09-25T06:49:08.983Z,1.75
2022-09-25T06:51:09.245Z,1.75
2022-09-25T06:53:09.030Z,1.75
2022-09-25T06:55:15.532Z,1.75
2022-09-25T06:57:09.124Z,1.75
2022-09-25T06:59:09.435Z,1.75
2022-09-25T07:01:19.021Z,1.75
2022-09-25T07:03:09.883Z,1.75
2022-09-25T07:05:09.200Z,1.75
2022-09-25T07:07:09.091Z,1.75
2022-09-25T07:09:08.739Z,1.75
2022-09-25T07:11:09.496Z,1.75
2022-09-25T07:13:09.004Z,1.75
2022-09-25T07:15:09.092Z,1.75
2022-09-25T07:17:09.582Z,1.75
2022-09-25T07:19:09.326Z,1.75
2022-09-25T07:21:09.026Z,1.75
2022-09-25T07:23:09.343Z,1.75
2022-09-25T07:25:09.064Z,1.75
2022-09-25T07:27:16.136Z,1.75
2022-09-25T07:29:09.500Z,1.75
2022-09-25T07:31:10.304Z,1.75
2022-09-25T07:33:11.573Z,1.75
2022-09-25T07:35:09.647Z,1.75
2022-09-25T07:37:09.693Z,1.75
2022-09-25T07:39:10.435Z,0.21
2022-09-25T07:41:09.786Z,0.21
2022-09-25T07:43:08.861Z,0.21
2022-09-25T07:45:38.410Z,3.51
2022-09-25T07:47:09.798Z,3.51
2022-09-25T07:49:09.303Z,3.51
2022-09-25T07:51:12.001Z,0.02
2022-09-25T07:53:09.541Z,0.02
2022-09-25T07:55:09.999Z,0.02
2022-09-25T07:57:14.503Z,0.01
2022-09-25T07:59:09.617Z,0.01
2022-09-25T08:01:12.030Z,0.01
2022-09-25T08:03:10.081Z,0.01
2022-09-25T08:05:09.656Z,0.01
2022-09-25T08:07:09.172Z,0.01
2022-09-25T08:09:10.767Z,0.01
2022-09-25T08:11:09.456Z,0.01
2022-09-25T08:13:08.940Z,0.01
2022-09-25T08:15:12.207Z,0.88
2022-09-25T08:17:10.261Z,0.88
2022-09-25T08:19:08.886Z,0.88
2022-09-25T08:21:09.282Z,0.01
2022-09-25T08:23:08.956Z,0.01
2022-09-25T08:25:09.797Z,0.01
2022-09-25T08:27:09.181Z,0.78
2022-09-25T08:29:09.521Z,0.78
2022-09-25T08:31:09.770Z,0.78
2022-09-25T08:33:11.997Z,0.71
2022-09-25T08:35:44.683Z,0.71
2022-09-25T08:37:09.119Z,0.71
2022-09-25T08:39:09.596Z,0.01
2022-09-25T08:41:10.148Z,0.01
2022-09-25T08:43:08.889Z,0.01
2022-09-25T08:45:42.273Z,0.66
2022-09-25T08:47:09.532Z,0.66
2022-09-25T08:49:09.560Z,0.66
2022-09-25T08:51:08.925Z,0.01
2022-09-25T08:53:09.442Z,0.01
2022-09-25T08:55:09.750Z,0.01
2022-09-25T08:57:09.714Z,0.01
2022-09-25T08:59:09.176Z,0.01
2022-09-25T09:01:13.181Z,0.01
2022-09-25T09:03:10.068Z,0.66
2022-09-25T09:05:09.225Z,0.66
2022-09-25T09:07:38.386Z,0.66
2022-09-25T09:09:09.097Z,0.68
2022-09-25T09:11:13.414Z,0.68
2022-09-25T09:13:09.140Z,0.68
2022-09-25T09:15:09.510Z,0.01
2022-09-25T09:17:09.610Z,0.01
2022-09-25T09:19:09.121Z,0.01
2022-09-25T09:21:09.334Z,0.01
2022-09-25T09:23:13.466Z,0.01
2022-09-25T09:25:09.678Z,0.01
2022-09-25T09:27:09.449Z,0.67
2022-09-25T09:29:08.792Z,0.67
2022-09-25T09:31:14.544Z,0.67
2022-09-25T09:33:09.497Z,0.01
2022-09-25T09:35:45.150Z,0.01
2022-09-25T09:37:09.158Z,0.01
2022-09-25T09:39:09.715Z,0.01
2022-09-25T09:41:09.955Z,0.01
2022-09-25T09:43:09.363Z,0.01
2022-09-25T09:45:09.557Z,0.01
2022-09-25T09:47:09.815Z,0.01
2022-09-25T09:49:09.683Z,0.01
2022-09-25T09:51:16.617Z,0.67
2022-09-25T09:53:09.379Z,0.67
2022-09-25T09:55:09.492Z,0.67
2022-09-25T09:57:09.656Z,0.01
2022-09-25T09:59:09.360Z,0.01
2022-09-25T10:01:48.358Z,0.01
2022-09-25T10:03:10.813Z,0.01
2022-09-25T10:05:09.920Z,0.01
2022-09-25T10:07:09.838Z,0.01
2022-09-25T10:09:09.307Z,0.67
2022-09-25T10:11:09.859Z,0.67
2022-09-25T10:13:15.396Z,0.67
2022-09-25T10:15:10.136Z,0.01
2022-09-25T10:17:10.018Z,0.01
2022-09-25T10:19:10.413Z,0.01
2022-09-25T10:21:09.565Z,0.01
2022-09-25T10:23:15.238Z,0.01
2022-09-25T10:25:10.699Z,0.01
2022-09-25T10:27:09.364Z,0.01
2022-09-25T10:29:10.265Z,0.01
2022-09-25T10:31:09.595Z,0.01
2022-09-25T10:33:09.794Z,0.01
2022-09-25T10:35:09.851Z,0.01
2022-09-25T10:37:10.028Z,0.01
2022-09-25T10:39:51.104Z,0.01
2022-09-25T10:41:10.455Z,0.01
2022-09-25T10:43:09.927Z,0.01
2022-09-25T10:45:09.693Z,0.01
2022-09-25T10:47:09.585Z,0.01
2022-09-25T10:49:09.582Z,0.01
2022-09-25T10:51:09.530Z,0.01
2022-09-25T10:53:09.634Z,0.01
2022-09-25T10:55:18.963Z,0.01
2022-09-25T10:57:10.222Z,0.01
2022-09-25T10:59:10.073Z,0.01
2022-09-25T11:01:12.678Z,0.01
2022-09-25T11:03:17.018Z,0.01
2022-09-25T11:05:10.109Z,0.01
2022-09-25T11:07:09.796Z,0.01
2022-09-25T11:09:09.656Z,0.01
2022-09-25T11:11:09.875Z,0.01
2022-09-25T11:13:09.975Z,0.01
2022-09-25T11:15:10.009Z,0.01
2022-09-25T11:17:10.917Z,0.01
2022-09-25T11:19:16.161Z,0.01
2022-09-25T11:21:09.449Z,0.01
2022-09-25T11:23:10.264Z,0.01
2022-09-25T11:25:13.089Z,0.01
2022-09-25T11:27:10.252Z,0.59
2022-09-25T11:29:10.034Z,0.59
2022-09-25T11:31:10.633Z,0.59
2022-09-25T11:33:15.494Z,0.01
2022-09-25T11:35:09.623Z,0.01
2022-09-25T11:37:09.658Z,0.01
2022-09-25T11:39:10.727Z,0.01
2022-09-25T11:41:10.724Z,0.01
2022-09-25T11:43:09.889Z,0.01
2022-09-25T11:45:09.362Z,0.01
2022-09-25T11:47:11.086Z,0.01
2022-09-25T11:49:12.410Z,0.01
2022-09-25T11:51:09.901Z,0.01
2022-09-25T11:53:12.211Z,0.01
2022-09-25T11:55:43.356Z,0.01
2022-09-25T11:57:10.039Z,0.62
2022-09-25T11:59:09.443Z,0.62
2022-09-25T12:01:13.233Z,0.62
2022-09-25T12:03:10.263Z,0.01
2022-09-25T12:05:15.671Z,0.01
2022-09-25T12:07:10.042Z,0.01
2022-09-25T12:09:09.695Z,0.01
2022-09-25T12:11:11.028Z,0.01
2022-09-25T12:13:09.665Z,0.01
2022-09-25T12:15:09.688Z,0.66
2022-09-25T12:17:09.990Z,0.01
2022-09-25T12:19:09.637Z,0.01
2022-09-25T12:21:10.222Z,0.01
2022-09-25T12:23:09.700Z,0.01
2022-09-25T12:25:14.240Z,0.01
2022-09-25T12:27:09.009Z,0.65
2022-09-25T12:29:09.246Z,0.01
2022-09-25T12:31:16.048Z,0.01
2022-09-25T12:33:08.846Z,0.01
2022-09-25T12:35:09.288Z,0.64
2022-09-25T12:37:09.391Z,0.64
2022-09-25T12:39:09.258Z,0.01
2022-09-25T12:41:09.869Z,0.66
2022-09-25T12:43:08.684Z,0.66
2022-09-25T12:45:12.763Z,0.01
2022-09-25T12:47:09.262Z,0.01
2022-09-25T12:49:09.722Z,0.01
2022-09-25T12:51:16.351Z,0.01
2022-09-25T12:53:09.325Z,0.01
2022-09-25T12:55:09.276Z,0.01
2022-09-25T12:57:09.497Z,0.01
2022-09-25T12:59:08.922Z,0.67
2022-09-25T13:01:12.281Z,0.67
2022-09-25T13:03:10.002Z,0.01
2022-09-25T13:05:09.006Z,0.01
2022-09-25T13:07:08.896Z,0.01
2022-09-25T13:09:09.463Z,0.01
2022-09-25T13:11:09.739Z,0.01
2022-09-25T13:13:12.882Z,0.01
2022-09-25T13:15:09.509Z,0.66
2022-09-25T13:17:10.119Z,0.65
2022-09-25T13:19:11.131Z,0.65
2022-09-25T13:21:08.803Z,0.01
2022-09-25T13:23:09.761Z,0.62
2022-09-25T13:25:09.857Z,0.62
2022-09-25T13:27:09.069Z,0.01
2022-09-25T13:29:08.956Z,0.62
2022-09-25T13:31:10.071Z,0.62
2022-09-25T13:33:09.617Z,0.01
2022-09-25T13:35:09.706Z,0.01
2022-09-25T13:37:09.159Z,0.01
2022-09-25T13:39:09.430Z,0.61
2022-09-25T13:41:09.293Z,0.01
2022-09-25T13:43:09.087Z,0.01
2022-09-25T13:45:09.469Z,0.62
2022-09-25T13:47:09.782Z,0.62
2022-09-25T13:49:15.355Z,0.62
2022-09-25T13:51:09.668Z,0.01
2022-09-25T13:53:08.944Z,0.63
2022-09-25T13:55:09.124Z,0.63
2022-09-25T13:57:09.202Z,0.66
2022-09-25T13:59:08.951Z,0.01
2022-09-25T14:01:14.721Z,0.01
2022-09-25T14:03:09.796Z,0.01
2022-09-25T14:05:09.303Z,0.01
2022-09-25T14:07:13.032Z,0.01
2022-09-25T14:09:09.056Z,0.01
2022-09-25T14:11:09.676Z,0.01
2022-09-25T14:13:09.223Z,0.01
2022-09-25T14:15:09.319Z,0.62
2022-09-25T14:17:09.160Z,0.01
2022-09-25T14:19:12.744Z,0.01
2022-09-25T14:21:09.507Z,0.01
2022-09-25T14:23:09.728Z,0.01
2022-09-25T14:25:09.322Z,0.01
2022-09-25T14:27:09.524Z,0.01
2022-09-25T14:29:08.827Z,0.01
2022-09-25T14:31:08.985Z,0.01
2022-09-25T14:33:41.424Z,0.01
2022-09-25T14:35:09.146Z,0.01
2022-09-25T14:37:09.204Z,0.01
2022-09-25T14:39:09.488Z,0.01
2022-09-25T14:41:09.845Z,0.01
2022-09-25T14:43:09.302Z,0.01
2022-09-25T14:45:09.656Z,0.01
2022-09-25T14:47:09.483Z,0.01
2022-09-25T14:49:08.967Z,0.01
2022-09-25T14:51:09.577Z,0.64
2022-09-25T14:53:09.163Z,0.01
2022-09-25T14:55:09.605Z,0.01
2022-09-25T14:57:09.676Z,0.01
2022-09-25T14:59:08.897Z,0.65
2022-09-25T15:01:12.600Z,0.65
2022-09-25T15:03:09.728Z,0.66
2022-09-25T15:05:09.402Z,0.01
2022-09-25T15:07:12.906Z,0.01
2022-09-25T15:09:09.339Z,0.01
2022-09-25T15:11:09.001Z,0.65
2022-09-25T15:13:09.634Z,0.65
2022-09-25T15:15:09.644Z,0.01
2022-09-25T15:17:10.390Z,0.01
2022-09-25T15:19:08.916Z,0.01
2022-09-25T15:21:09.510Z,0.01
2022-09-25T15:23:09.418Z,0.64
2022-09-25T15:25:09.470Z,0.64
2022-09-25T15:27:08.890Z,0.64
2022-09-25T15:29:09.019Z,0.65
2022-09-25T15:31:09.714Z,0.65
2022-09-25T15:33:12.527Z,0.01
2022-09-25T15:35:08.955Z,0.01
2022-09-25T15:37:09.156Z,0.01
2022-09-25T15:39:09.346Z,0.01
2022-09-25T15:41:09.682Z,0.62
2022-09-25T15:43:09.456Z,0.62
2022-09-25T15:45:15.199Z,0.62
2022-09-25T15:47:10.094Z,0.62
2022-09-25T15:49:09.423Z,0.62
2022-09-25T15:51:08.934Z,0.01
2022-09-25T15:53:08.807Z,0.01
2022-09-25T15:55:08.908Z,0.01
2022-09-25T15:57:09.419Z,0.01
2022-09-25T15:59:08.702Z,0.01
2022-09-25T16:01:09.275Z,0.01
2022-09-25T16:03:15.230Z,0.61
2022-09-25T16:05:12.928Z,0.01
2022-09-25T16:07:08.958Z,0.01
2022-09-25T16:09:09.546Z,0.01
2022-09-25T16:11:12.947Z,0.01
2022-09-25T16:13:09.585Z,0.01
2022-09-25T16:15:09.398Z,0.01
2022-09-25T16:17:10.170Z,0.61
2022-09-25T16:19:13.808Z,0.61
2022-09-25T16:21:10.069Z,0.6
2022-09-25T16:23:10.131Z,0.01
2022-09-25T16:25:09.549Z,0.01
2022-09-25T16:27:09.592Z,0.01
2022-09-25T16:29:10.023Z,0.6
2022-09-25T16:31:12.777Z,0.6
2022-09-25T16:33:09.555Z,0.59
2022-09-25T16:35:09.988Z,0.01
2022-09-25T16:37:24.901Z,0.01
2022-09-25T16:39:10.168Z,0.59
2022-09-25T16:41:10.756Z,0.01
2022-09-25T16:43:12.641Z,0.01
2022-09-25T16:45:09.854Z,0.59
2022-09-25T16:47:10.249Z,0.59
2022-09-25T16:49:09.746Z,0.59
2022-09-25T16:51:09.366Z,0.01
2022-09-25T16:53:09.987Z,0.01
2022-09-25T16:55:12.342Z,0.01
2022-09-25T16:57:10.385Z,0.58
2022-09-25T16:59:10.119Z,0.01
2022-09-25T17:01:12.428Z,0.01
2022-09-25T17:03:11.794Z,0.01
2022-09-25T17:05:10.039Z,0.01
2022-09-25T17:07:10.160Z,0.01
2022-09-25T17:09:10.044Z,0.57
2022-09-25T17:11:10.591Z,0.01
2022-09-25T17:13:16.299Z,0.01
2022-09-25T17:15:10.361Z,0.01
2022-09-25T17:17:09.694Z,0.57
2022-09-25T17:19:13.254Z,0.57
2022-09-25T17:21:10.694Z,0.01
2022-09-25T17:23:10.046Z,0.01
2022-09-25T17:25:09.693Z,0.01
2022-09-25T17:27:10.098Z,0.01
2022-09-25T17:29:10.481Z,0.01
2022-09-25T17:31:10.080Z,0.01
2022-09-25T17:33:11.157Z,0.56
2022-09-25T17:35:14.491Z,0.01
2022-09-25T17:37:10.077Z,0.01
2022-09-25T17:39:09.477Z,0.01
2022-09-25T17:41:16.781Z,0.01
2022-09-25T17:43:11.071Z,0.01
2022-09-25T17:45:09.688Z,0.01
2022-09-25T17:47:10.946Z,0.01
2022-09-25T17:49:17.099Z,0.01
2022-09-25T17:51:10.979Z,0.01
2022-09-25T17:53:10.478Z,0.55
2022-09-25T17:55:13.592Z,0.55
2022-09-25T17:57:12.821Z,0.01
2022-09-25T17:59:11.219Z,0.01
2022-09-25T18:01:13.356Z,0.01
2022-09-25T18:03:13.288Z,0.01
2022-09-25T18:05:09.777Z,0.01
2022-09-25T18:07:10.362Z,0.01
2022-09-25T18:09:10.407Z,0.54
2022-09-25T18:11:11.301Z,0.01
2022-09-25T18:13:10.658Z,0.01
2022-09-25T18:15:09.048Z,0.01
2022-09-25T18:17:10.418Z,0.01
2022-09-25T18:19:11.166Z,0.01
2022-09-25T18:21:11.303Z,0.01
2022-09-25T18:23:09.994Z,0.01
2022-09-25T18:25:09.460Z,0.01
2022-09-25T18:27:16.961Z,0.01
2022-09-25T18:29:12.730Z,0.54
2022-09-25T18:31:10.089Z,0.54
2022-09-25T18:33:10.176Z,0.55
2022-09-25T18:35:11.203Z,0.01
2022-09-25T18:37:09.426Z,0.01
2022-09-25T18:39:09.479Z,0.01
2022-09-25T18:41:10.190Z,0.01
2022-09-25T18:43:10.618Z,0.01
2022-09-25T18:45:16.757Z,0.47
2022-09-25T18:47:11.006Z,0
2022-09-25T18:49:09.729Z,0
2022-09-25T18:51:14.386Z,0.46
2022-09-25T18:53:09.602Z,0
2022-09-25T18:55:09.900Z,0
2022-09-25T18:57:10.090Z,0
2022-09-25T18:59:09.486Z,0
2022-09-25T19:01:13.932Z,0
2022-09-25T19:03:13.165Z,0.46
2022-09-25T19:05:10.998Z,0
2022-09-25T19:07:10.493Z,0
2022-09-25T19:09:16.214Z,0
2022-09-25T19:11:09.841Z,0
2022-09-25T19:13:12.632Z,0
2022-09-25T19:15:11.175Z,0
2022-09-25T19:17:12.618Z,0
2022-09-25T19:19:09.719Z,0
2022-09-25T19:21:10.420Z,0
2022-09-25T19:23:09.046Z,0.01
2022-09-25T19:25:10.431Z,0.01
2022-09-25T19:27:10.028Z,0.01
2022-09-25T19:29:10.483Z,0.01
2022-09-25T19:31:09.992Z,0.01
2022-09-25T19:33:09.848Z,0.53
2022-09-25T19:35:10.508Z,0.01
2022-09-25T19:37:10.372Z,0.01
2022-09-25T19:39:10.345Z,0.01
2022-09-25T19:41:10.342Z,0.53
2022-09-25T19:43:09.872Z,0.53
2022-09-25T19:45:11.457Z,0.01
2022-09-25T19:47:10.970Z,0.01
2022-09-25T19:49:10.255Z,0.01
2022-09-25T19:51:10.596Z,0.55
2022-09-25T19:53:14.037Z,0.01
2022-09-25T19:55:09.353Z,0.01
2022-09-25T19:57:10.511Z,0.01
2022-09-25T19:59:10.533Z,0.01
2022-09-25T20:01:12.790Z,0.01
2022-09-25T20:03:10.990Z,0.01
2022-09-25T20:05:16.460Z,0.01
2022-09-25T20:07:09.007Z,0.01
2022-09-25T20:09:11.407Z,0.01
2022-09-25T20:11:10.330Z,0.01
2022-09-25T20:13:10.044Z,0.01
2022-09-25T20:15:10.090Z,0.57
2022-09-25T20:17:11.306Z,0.01
2022-09-25T20:19:09.948Z,0.01
2022-09-25T20:21:10.558Z,0.58
2022-09-25T20:23:10.317Z,0.59
2022-09-25T20:25:09.665Z,0.59
2022-09-25T20:27:11.258Z,0.01
2022-09-25T20:29:10.161Z,0.59
2022-09-25T20:31:11.652Z,0.59
2022-09-25T20:33:09.979Z,0.58
2022-09-25T20:35:10.079Z,0.01
2022-09-25T20:37:10.217Z,0.01
2022-09-25T20:39:10.090Z,0.01
2022-09-25T20:41:10.707Z,0.01
2022-09-25T20:43:09.990Z,0.01
2022-09-25T20:45:09.769Z,0.01
2022-09-25T20:47:10.822Z,0.01
2022-09-25T20:49:09.245Z,0.01
2022-09-25T20:51:10.676Z,0.59
2022-09-25T20:55:10.223Z,0.59
2022-09-25T20:55:55.206Z,0.59
2022-09-25T20:59:15.924Z,0.59
2022-09-25T21:03:11.071Z,0.01
2022-09-25T21:07:11.958Z,0.01
2022-09-25T21:11:10.207Z,0.01
2022-09-25T21:15:10.396Z,0.01
2022-09-25T21:19:09.621Z,0.61
2022-09-25T21:23:10.009Z,0.61
2022-09-25T21:27:09.798Z,0.01
2022-09-25T21:31:09.590Z,0.01
2022-09-25T21:35:09.644Z,0.01
2022-09-25T21:39:09.484Z,0.01
2022-09-25T21:43:09.558Z,0.01
2022-09-25T21:47:10.151Z,0.63
2022-09-25T21:51:09.424Z,0.01
2022-09-25T21:55:09.739Z,0.01
2022-09-25T21:59:09.533Z,0.01
2022-09-25T22:03:10.094Z,0.01
2022-09-25T22:07:09.085Z,0.01
2022-09-25T22:11:09.819Z,0.64
2022-09-25T22:15:12.856Z,0.01
2022-09-25T22:19:08.902Z,0.01
2022-09-25T22:23:08.993Z,0.65
2022-09-25T22:27:09.157Z,0.01
2022-09-25T22:31:10.213Z,0.01
2022-09-25T22:35:09.258Z,0.66
2022-09-25T22:39:08.780Z,0.01
2022-09-25T22:43:09.482Z,0.01
2022-09-25T22:47:09.345Z,0.01
2022-09-25T22:51:09.009Z,0.01
2022-09-25T22:55:09.118Z,0.01
2022-09-25T22:59:09.825Z,0.01
2022-09-25T23:03:09.827Z,0.01
2022-09-25T23:07:09.397Z,0.01
2022-09-25T23:11:40.280Z,0.01
2022-09-25T23:15:09.310Z,0.01
2022-09-25T23:19:09.423Z,0.01
2022-09-25T23:23:09.286Z,0.01
2022-09-25T23:27:09.213Z,0.01
2022-09-25T23:31:09.365Z,0.01
2022-09-25T23:35:09.746Z,0.01
2022-09-25T23:39:09.467Z,0.01
2022-09-25T23:43:09.384Z,0.01
2022-09-25T23:47:09.166Z,0.01
2022-09-25T23:51:12.360Z,0.01
2022-09-25T23:55:09.247Z,0.01
2022-09-25T23:59:09.006Z,0.01
